Elmwood Park, NJ (07407)

11:06 AM EST on February 28, 2015 (GMT -0500)
Residential | Change Station
CLOSE
Current Station
Personal Weather Station
Location: Saddle Brook, NJ
Elevation: 59 ft
Nearby Weather Stations

Elev 59 ft 40.91 °N, 74.10 °W | Updated 42 seconds ago

Clear
Clear
20.8 °F
Feels Like 16 °F
N
3.1
Wind Variable Wind from NNW
Gusts 6.0 mph

Today
High -- | Low -- °F
--% Chance of Precip.
Yesterday
High -- | Low -- °F
Precip. -- in
6:32 AM 5:46 PM
Waxing Gibbous, 78% visible
Pressure 30.82 in
Visibility 9.0 miles
Clouds Clear
Windchill 16 °F
Dew Point -7 °F
Humidity 28%
Rainfall 0.00 in
Snow Depth Not available.
UV 5 out of 12
Pollen .50 out of 12
Air Quality Not available.
Flu Activity Not available.
METAR KTEB 281551Z VRB03KT 9SM CLR M06/M19 A3082 RMK AO2 SLP437 T10561194

More Conditions Fewer Conditions

Pressure 30.82 in
Visibility 9.0 miles
Clouds Clear
Windchill 16 °F
Dew Point -7 °F
Humidity 28%
Rainfall 0.00 in
Snow Depth Not available.
UV 5 out of 12
Pollen .50 out of 12
Air Quality Not available.
Flu Activity Not available.
METAR KTEB 281551Z VRB03KT 9SM CLR M06/M19 A3082 RMK AO2 SLP437 T10561194

More Conditions Fewer Conditions

10-Day Weather Forecast

Almanac

Astronomy

Feb. 28, 2015 Rise Set
Actual Time
Civil Twilight
Nautical Twilight
Astronomical Twilight
Moon
Length of Visible Light
Length of Day
Tomorrow will be .
, % of the Moon is Illuminated

Today's Extremes

State Highs State Lows

Community

WunderPhotos

Upload Photos

1,801,068 photos uploaded!

WunderBlogs® & News

Nearby

Air Quality

  Air Quality AQ Index Pollutant
Not available.

Snow Depth

Station Depth Elevation

Earthquake Activity

City Distance Mag. Time & Date
Minimum magnitude displayed is 2.5.

Coastal Water Temperatures

Place Temperature

Nearby Weather Stations